Picton, Canada
Current Conditions -  °F | °C
As of 8:00 PM on Thursday 18 Dec 2014 (Local Time) from CYTR Reporting Station
Overcast Overcast  
Wind Chill: 21°   Ceiling: 2100
Heat Index: 28°   Visibility: 15mi
Dew Point: 21°   Wind: 7mph
Humidity: 74%   Direction: 310°NW
Pressure: 30.07"   Gusts: NA
Location:  44.01°N, 77.14°W
Report Text: CYTR 190100Z 31006KT 15SM OVC021 M02/M06 A3007 RMK SC8 SLP187
Loading
Personal Weather Stations






























Interactive Weather Map New forecast layout! Learn more

10-Day Weather Forecast

Advertisements
Track Severe Weather on mobile